Lumaghi Heights, Illinois
Current Conditions -  °F | °C
As of 12:58 AM on Friday 19 Dec 2014 (Local Time) from KBLV Reporting Station
Overcast Overcast  
Wind Chill: 32°   Ceiling: 3100
Heat Index: 32°   Visibility: 10mi
Dew Point: 27°   Wind: 3mph
Humidity: 81%   Direction: 20°NNE
Pressure: 30.28"   Gusts: NA
Location:  38.6902°N, 89.9816°W
Report Text: KBLV 190658Z AUTO 02003KT 10SM OVC031 00/M03 A3028 RMK AO2 SLPNO T00021027
Loading
Personal Weather Stations






























Interactive Weather Map New forecast layout! Learn more

10-Day Weather Forecast

Advertisements
Track Severe Weather on mobile